createdAt,value
2018-07-23T00:00:30.002Z,53.80
2018-07-23T00:01:35.023Z,53.80
2018-07-23T00:02:40.035Z,53.80
2018-07-23T00:03:45.049Z,53.80
2018-07-23T00:04:49.902Z,53.80
2018-07-23T00:05:54.936Z,53.80
2018-07-23T00:06:59.767Z,53.80
2018-07-23T00:08:04.769Z,53.80
2018-07-23T00:09:09.632Z,53.90
2018-07-23T00:10:14.636Z,53.90
2018-07-23T00:11:19.649Z,53.90
2018-07-23T00:12:24.639Z,53.90
2018-07-23T00:13:29.689Z,53.90
2018-07-23T00:14:34.735Z,53.80
2018-07-23T00:15:39.626Z,53.90
2018-07-23T00:16:44.674Z,53.90
2018-07-23T00:17:49.558Z,53.90
2018-07-23T00:18:54.619Z,53.90
2018-07-23T00:19:59.633Z,54.00
2018-07-23T00:21:04.483Z,54.00
2018-07-23T00:22:09.689Z,54.10
2018-07-23T00:23:14.677Z,54.00
2018-07-23T00:24:19.665Z,54.10
2018-07-23T00:25:24.557Z,54.10
2018-07-23T00:26:29.690Z,54.10
2018-07-23T00:27:34.633Z,54.10
2018-07-23T00:28:39.524Z,54.10
2018-07-23T00:29:44.394Z,54.10
2018-07-23T00:30:49.477Z,54.10
2018-07-23T00:31:54.407Z,54.10
2018-07-23T00:32:59.315Z,54.10
2018-07-23T00:34:04.400Z,54.10
2018-07-23T00:35:09.317Z,54.30
2018-07-23T00:36:14.312Z,54.20
2018-07-23T00:37:19.088Z,54.20
2018-07-23T00:38:23.879Z,54.20
2018-07-23T00:39:28.728Z,54.30
2018-07-23T00:40:33.617Z,54.30
2018-07-23T00:41:38.585Z,54.30
2018-07-23T00:42:43.450Z,54.30
2018-07-23T00:43:48.488Z,54.40
2018-07-23T00:44:53.304Z,54.30
2018-07-23T00:45:58.364Z,54.30
2018-07-23T00:47:03.472Z,54.30
2018-07-23T00:48:08.296Z,54.90
2018-07-23T00:49:13.517Z,54.40
2018-07-23T00:50:18.395Z,54.30
2018-07-23T00:51:23.598Z,54.30
2018-07-23T00:52:28.431Z,54.30
2018-07-23T00:53:33.267Z,54.30
2018-07-23T00:54:38.146Z,54.50
2018-07-23T00:55:43.033Z,54.30
2018-07-23T00:56:47.844Z,54.40
2018-07-23T00:57:52.771Z,54.40
2018-07-23T00:58:57.859Z,54.50
2018-07-23T01:00:02.910Z,54.40
2018-07-23T01:01:07.797Z,55.10
2018-07-23T01:02:12.755Z,54.40
2018-07-23T01:03:18.871Z,54.50
2018-07-23T01:04:23.943Z,54.50
2018-07-23T01:05:29.022Z,54.50
2018-07-23T01:06:34.130Z,54.50
2018-07-23T01:07:39.063Z,54.60
2018-07-23T01:08:44.002Z,54.60
2018-07-23T01:09:48.884Z,54.70
2018-07-23T01:10:53.850Z,54.70
2018-07-23T01:11:58.837Z,54.70
2018-07-23T01:13:03.931Z,54.70
2018-07-23T01:14:09.044Z,54.70
2018-07-23T01:15:14.083Z,54.80
2018-07-23T01:16:18.967Z,54.70
2018-07-23T01:17:24.697Z,54.80
2018-07-23T01:18:29.554Z,54.90
2018-07-23T01:19:34.668Z,54.90
2018-07-23T01:20:39.672Z,54.90
2018-07-23T01:21:44.676Z,54.90
2018-07-23T01:22:49.673Z,54.90
2018-07-23T01:23:54.591Z,54.80
2018-07-23T01:24:59.620Z,54.90
2018-07-23T01:26:04.672Z,54.90
2018-07-23T01:27:09.753Z,55.00
2018-07-23T01:28:14.705Z,55.00
2018-07-23T01:29:19.827Z,55.00
2018-07-23T01:30:24.752Z,55.00
2018-07-23T01:31:29.715Z,55.10
2018-07-23T01:32:34.850Z,55.70
2018-07-23T01:33:39.653Z,55.20
2018-07-23T01:34:44.798Z,55.30
2018-07-23T01:35:49.796Z,55.30
2018-07-23T01:36:54.813Z,55.30
2018-07-23T01:37:59.803Z,55.30
2018-07-23T01:39:04.630Z,55.30
2018-07-23T01:40:09.445Z,55.30
2018-07-23T01:41:14.428Z,55.30
2018-07-23T01:42:19.201Z,55.30
2018-07-23T01:43:24.132Z,55.30
2018-07-23T01:44:28.965Z,55.30
2018-07-23T01:45:33.955Z,55.30
2018-07-23T01:46:39.097Z,55.30
2018-07-23T01:47:44.130Z,55.30
2018-07-23T01:48:49.028Z,55.40
2018-07-23T01:49:54.064Z,55.40
2018-07-23T01:50:58.989Z,55.30
2018-07-23T01:52:04.069Z,55.40
2018-07-23T01:53:09.125Z,55.40
2018-07-23T01:54:14.142Z,55.30
2018-07-23T01:55:19.001Z,55.30
2018-07-23T01:56:24.077Z,55.40
2018-07-23T01:57:28.957Z,55.40
2018-07-23T01:58:33.877Z,55.40
2018-07-23T01:59:38.989Z,55.50
2018-07-23T02:00:44.162Z,55.50
2018-07-23T02:01:49.301Z,55.50
2018-07-23T02:02:54.195Z,55.40
2018-07-23T02:03:59.328Z,55.50
2018-07-23T02:05:04.560Z,55.50
2018-07-23T02:06:09.607Z,55.50
2018-07-23T02:07:14.839Z,55.50
2018-07-23T02:08:19.911Z,55.50
2018-07-23T02:09:24.950Z,55.40
2018-07-23T02:10:29.904Z,55.40
2018-07-23T02:11:34.978Z,55.50
2018-07-23T02:12:39.875Z,55.50
2018-07-23T02:13:44.778Z,55.50
2018-07-23T02:14:49.811Z,55.50
2018-07-23T02:15:54.829Z,55.50
2018-07-23T02:16:59.908Z,55.40
2018-07-23T02:18:05.041Z,55.40
2018-07-23T02:19:09.946Z,55.50
2018-07-23T02:20:14.825Z,55.50
2018-07-23T02:21:19.650Z,55.40
2018-07-23T02:22:24.512Z,55.50
2018-07-23T02:23:29.492Z,55.50
2018-07-23T02:24:34.331Z,55.50
2018-07-23T02:25:39.421Z,56.10
2018-07-23T02:26:44.246Z,55.50
2018-07-23T02:27:49.201Z,55.50
2018-07-23T02:28:54.005Z,55.40
2018-07-23T02:29:59.047Z,55.40
2018-07-23T02:31:04.123Z,55.50
2018-07-23T02:32:09.142Z,55.40
2018-07-23T02:33:13.914Z,55.50
2018-07-23T02:34:18.912Z,55.60
2018-07-23T02:35:23.788Z,55.60
2018-07-23T02:36:28.648Z,55.60
2018-07-23T02:37:33.739Z,55.60
2018-07-23T02:38:38.941Z,55.60
2018-07-23T02:39:43.952Z,55.60
2018-07-23T02:40:48.977Z,55.70
2018-07-23T02:41:53.803Z,55.60
2018-07-23T02:42:58.821Z,55.50
2018-07-23T02:44:03.855Z,55.60
2018-07-23T02:45:08.886Z,55.60
2018-07-23T02:46:13.771Z,55.60
2018-07-23T02:47:18.615Z,55.70
2018-07-23T02:48:23.618Z,55.60
2018-07-23T02:49:28.472Z,55.50
2018-07-23T02:50:33.310Z,55.60
2018-07-23T02:51:38.167Z,55.60
2018-07-23T02:52:43.289Z,55.70
2018-07-23T02:53:48.276Z,55.50
2018-07-23T02:54:53.299Z,55.60
2018-07-23T02:55:58.160Z,55.60
2018-07-23T02:57:02.980Z,55.60
2018-07-23T02:58:07.832Z,55.60
2018-07-23T02:59:12.862Z,55.60
2018-07-23T03:00:17.801Z,55.60
2018-07-23T03:01:22.634Z,55.60
2018-07-23T03:02:27.685Z,55.60
2018-07-23T03:03:32.525Z,55.60
2018-07-23T03:04:37.406Z,55.60
2018-07-23T03:05:42.494Z,55.60
2018-07-23T03:06:49.653Z,55.60
2018-07-23T03:07:54.725Z,55.60
2018-07-23T03:08:59.778Z,55.60
2018-07-23T03:10:04.887Z,55.70
2018-07-23T03:11:09.934Z,55.80
2018-07-23T03:12:15.055Z,55.80
2018-07-23T03:13:19.916Z,55.80
2018-07-23T03:14:25.035Z,55.80
2018-07-23T03:15:30.072Z,55.80
2018-07-23T03:16:35.125Z,55.80
2018-07-23T03:17:40.159Z,55.80
2018-07-23T03:18:45.032Z,55.80
2018-07-23T03:19:50.066Z,55.80
2018-07-23T03:20:54.847Z,55.80
2018-07-23T03:21:59.831Z,55.90
2018-07-23T03:23:04.752Z,55.90
2018-07-23T03:24:09.705Z,55.90
2018-07-23T03:25:14.654Z,55.90
2018-07-23T03:26:19.715Z,55.90
2018-07-23T03:27:24.526Z,56.00
2018-07-23T03:28:29.479Z,55.90
2018-07-23T03:29:34.417Z,56.00
2018-07-23T03:30:39.396Z,55.90
2018-07-23T03:31:44.231Z,56.00
2018-07-23T03:32:49.200Z,56.10
2018-07-23T03:33:54.176Z,56.10
2018-07-23T03:34:59.141Z,56.10
2018-07-23T03:36:04.110Z,56.10
2018-07-23T03:37:08.900Z,56.20
2018-07-23T03:38:13.896Z,56.20
2018-07-23T03:39:18.681Z,56.10
2018-07-23T03:40:23.704Z,56.10
2018-07-23T03:41:28.647Z,56.10
2018-07-23T03:42:33.533Z,56.10
2018-07-23T03:43:38.500Z,56.20
2018-07-23T03:44:43.309Z,56.20
2018-07-23T03:45:48.097Z,56.30
2018-07-23T03:46:52.984Z,56.30
2018-07-23T03:47:57.849Z,56.30
2018-07-23T03:49:02.796Z,56.30
2018-07-23T03:50:07.601Z,56.30
2018-07-23T03:51:12.601Z,56.30
2018-07-23T03:52:17.611Z,56.40
2018-07-23T03:53:22.599Z,56.40
2018-07-23T03:54:27.491Z,56.30
2018-07-23T03:55:33.446Z,56.40
2018-07-23T03:56:38.272Z,56.40
2018-07-23T03:57:43.297Z,56.40
2018-07-23T03:58:48.255Z,56.50
2018-07-23T03:59:53.238Z,56.40
2018-07-23T04:00:58.237Z,56.50
2018-07-23T04:02:04.231Z,56.50
2018-07-23T04:03:09.256Z,56.50
2018-07-23T04:04:14.233Z,56.50
2018-07-23T04:05:19.223Z,56.60
2018-07-23T04:06:24.222Z,56.50
2018-07-23T04:07:29.166Z,56.50
2018-07-23T04:08:33.980Z,56.60
2018-07-23T04:09:38.751Z,56.50
2018-07-23T04:10:43.869Z,56.50
2018-07-23T04:11:48.847Z,56.50
2018-07-23T04:12:54.031Z,56.50
2018-07-23T04:13:58.972Z,56.50
2018-07-23T04:15:03.948Z,56.50
2018-07-23T04:16:08.754Z,56.60
2018-07-23T04:17:13.569Z,56.60
2018-07-23T04:18:18.596Z,56.60
2018-07-23T04:19:23.561Z,56.60
2018-07-23T04:20:28.604Z,56.70
2018-07-23T04:21:33.457Z,56.70
2018-07-23T04:22:38.431Z,56.70
2018-07-23T04:23:43.274Z,56.70
2018-07-23T04:24:48.113Z,56.70
2018-07-23T04:25:52.997Z,56.70
2018-07-23T04:26:58.031Z,56.90
2018-07-23T04:28:03.085Z,56.70
2018-07-23T04:29:08.130Z,56.90
2018-07-23T04:30:12.971Z,56.90
2018-07-23T04:31:17.828Z,56.90
2018-07-23T04:32:22.672Z,57.00
2018-07-23T04:33:27.554Z,56.90
2018-07-23T04:34:32.549Z,56.80
2018-07-23T04:35:37.478Z,56.80
2018-07-23T04:36:42.496Z,56.80
2018-07-23T04:37:47.539Z,56.90
2018-07-23T04:38:52.525Z,57.00
2018-07-23T04:39:57.264Z,57.10
2018-07-23T04:41:02.073Z,57.10
2018-07-23T04:42:06.929Z,57.10
2018-07-23T04:43:11.741Z,57.00
2018-07-23T04:44:16.747Z,57.00
2018-07-23T04:45:21.695Z,57.00
2018-07-23T04:46:26.602Z,57.10
2018-07-23T04:47:31.398Z,57.20
2018-07-23T04:48:36.560Z,57.20
2018-07-23T04:49:41.717Z,57.30
2018-07-23T04:50:46.892Z,57.40
2018-07-23T04:51:52.033Z,57.40
2018-07-23T04:52:57.242Z,57.40
2018-07-23T04:54:02.340Z,57.50
2018-07-23T04:55:07.382Z,57.50
2018-07-23T04:56:12.331Z,57.50
2018-07-23T04:57:17.331Z,57.50
2018-07-23T04:58:22.572Z,57.50
2018-07-23T04:59:27.654Z,57.60
2018-07-23T05:00:32.639Z,57.60
2018-07-23T05:01:37.563Z,57.60
2018-07-23T05:02:42.644Z,57.70
2018-07-23T05:03:47.563Z,57.60
2018-07-23T05:04:52.671Z,57.60
2018-07-23T05:05:57.635Z,57.60
2018-07-23T05:07:02.633Z,57.60
2018-07-23T05:08:07.684Z,57.50
2018-07-23T05:09:12.637Z,57.50
2018-07-23T05:10:17.857Z,57.60
2018-07-23T05:11:22.976Z,57.60
2018-07-23T05:12:28.058Z,57.50
2018-07-23T05:13:33.006Z,57.50
2018-07-23T05:14:37.943Z,57.50
2018-07-23T05:15:43.076Z,57.50
2018-07-23T05:16:48.000Z,57.60
2018-07-23T05:17:53.063Z,57.50
2018-07-23T05:18:58.141Z,57.50
2018-07-23T05:20:03.104Z,57.50
2018-07-23T05:21:08.240Z,57.50
2018-07-23T05:22:13.325Z,57.50
2018-07-23T05:23:18.433Z,57.60
2018-07-23T05:24:23.358Z,57.60
2018-07-23T05:25:28.351Z,57.60
2018-07-23T05:26:33.617Z,57.60
2018-07-23T05:27:38.733Z,57.60
2018-07-23T05:28:43.832Z,57.50
2018-07-23T05:29:48.995Z,57.50
2018-07-23T05:30:53.868Z,57.50
2018-07-23T05:31:59.003Z,57.50
2018-07-23T05:33:04.338Z,57.40
2018-07-23T05:34:09.540Z,57.50
2018-07-23T05:35:14.983Z,57.50
2018-07-23T05:36:20.214Z,57.50
2018-07-23T05:37:25.540Z,57.40
2018-07-23T05:38:30.807Z,57.40
2018-07-23T05:39:35.873Z,57.50
2018-07-23T05:40:40.866Z,57.50
2018-07-23T05:41:46.054Z,57.60
2018-07-23T05:42:51.136Z,57.60
2018-07-23T05:43:56.308Z,57.60
2018-07-23T05:45:01.351Z,57.60
2018-07-23T05:46:06.451Z,57.50
2018-07-23T05:47:11.484Z,57.30
2018-07-23T05:48:16.727Z,57.30
2018-07-23T05:49:21.704Z,57.30
2018-07-23T05:50:26.758Z,57.30
2018-07-23T05:51:31.762Z,57.30
2018-07-23T05:52:36.895Z,57.30
2018-07-23T05:53:41.899Z,57.40
2018-07-23T05:54:47.082Z,57.40
2018-07-23T05:55:52.229Z,57.40
2018-07-23T05:56:57.537Z,57.30
2018-07-23T05:58:02.521Z,57.30
2018-07-23T05:59:07.720Z,57.20
2018-07-23T06:00:12.779Z,57.20
2018-07-23T06:01:17.912Z,57.90
2018-07-23T06:02:22.950Z,57.30
2018-07-23T06:03:28.155Z,57.40
2018-07-23T06:04:33.293Z,57.30
2018-07-23T06:05:38.509Z,57.30
2018-07-23T06:06:43.808Z,57.40
2018-07-23T06:07:49.210Z,57.40
2018-07-23T06:08:54.414Z,57.40
2018-07-23T06:09:59.468Z,57.50
2018-07-23T06:11:04.643Z,57.50
2018-07-23T06:12:09.718Z,57.50
2018-07-23T06:13:14.957Z,57.50
2018-07-23T06:14:19.874Z,57.30
2018-07-23T06:15:25.157Z,57.40
2018-07-23T06:16:30.109Z,57.30
2018-07-23T06:17:35.154Z,57.20
2018-07-23T06:18:40.330Z,57.30
2018-07-23T06:19:45.709Z,57.40
2018-07-23T06:20:50.902Z,57.40
2018-07-23T06:21:56.005Z,57.50
2018-07-23T06:23:00.973Z,57.50
2018-07-23T06:24:06.177Z,57.60
2018-07-23T06:25:11.077Z,57.60
2018-07-23T06:26:16.292Z,57.60
2018-07-23T06:27:21.213Z,57.60
2018-07-23T06:28:26.471Z,57.60
2018-07-23T06:29:31.536Z,57.50
2018-07-23T06:30:36.888Z,57.50
2018-07-23T06:31:42.021Z,57.50
2018-07-23T06:32:47.169Z,57.50
2018-07-23T06:33:52.379Z,57.40
2018-07-23T06:34:57.382Z,57.30
2018-07-23T06:36:02.495Z,57.30
2018-07-23T06:37:07.575Z,57.20
2018-07-23T06:38:12.490Z,57.20
2018-07-23T06:39:17.559Z,57.40
2018-07-23T06:40:22.539Z,57.50
2018-07-23T06:41:27.389Z,57.50
2018-07-23T06:42:32.952Z,57.70
2018-07-23T06:43:37.948Z,57.90
2018-07-23T06:44:42.863Z,57.70
2018-07-23T06:45:47.901Z,57.50
2018-07-23T06:46:52.917Z,57.50
2018-07-23T06:47:57.862Z,57.60
2018-07-23T06:49:02.777Z,57.50
2018-07-23T06:50:07.969Z,57.60
2018-07-23T06:51:12.871Z,57.40
2018-07-23T06:52:17.828Z,57.30
2018-07-23T06:53:22.911Z,57.20
2018-07-23T06:54:27.909Z,57.10
2018-07-23T06:55:32.885Z,57.10
2018-07-23T06:56:38.071Z,57.10
2018-07-23T06:57:43.222Z,57.10
2018-07-23T06:58:48.474Z,57.10
2018-07-23T06:59:53.847Z,57.20
2018-07-23T07:00:59.045Z,57.10
2018-07-23T07:02:04.106Z,57.00
2018-07-23T07:03:09.379Z,57.00
2018-07-23T07:04:14.306Z,57.00
2018-07-23T07:05:19.163Z,56.90
2018-07-23T07:06:24.069Z,56.90
2018-07-23T07:07:29.046Z,56.90
2018-07-23T07:08:34.084Z,56.90
2018-07-23T07:09:38.890Z,56.70
2018-07-23T07:10:43.817Z,56.70
2018-07-23T07:11:48.820Z,56.60
2018-07-23T07:12:53.874Z,56.50
2018-07-23T07:13:58.932Z,56.40
2018-07-23T07:15:03.902Z,56.30
2018-07-23T07:16:09.184Z,56.20
2018-07-23T07:17:14.277Z,56.30
2018-07-23T07:18:19.259Z,56.40
2018-07-23T07:19:24.342Z,56.30
2018-07-23T07:20:29.643Z,56.30
2018-07-23T07:21:34.745Z,56.30
2018-07-23T07:22:39.827Z,56.40
2018-07-23T07:23:44.733Z,56.30
2018-07-23T07:24:49.839Z,56.20
2018-07-23T07:25:54.664Z,56.30
2018-07-23T07:26:59.894Z,56.10
2018-07-23T07:28:04.994Z,56.20
2018-07-23T07:29:10.091Z,56.10
2018-07-23T07:30:15.352Z,56.10
2018-07-23T07:31:20.263Z,56.00
2018-07-23T07:32:26.509Z,56.00
2018-07-23T07:33:31.549Z,56.00
2018-07-23T07:34:36.764Z,56.10
2018-07-23T07:35:41.614Z,56.10
2018-07-23T07:36:46.732Z,56.10
2018-07-23T07:37:51.653Z,56.10
2018-07-23T07:38:56.548Z,56.10
2018-07-23T07:40:01.940Z,55.90
2018-07-23T07:41:07.015Z,55.80
2018-07-23T07:42:12.004Z,55.70
2018-07-23T07:43:16.824Z,55.60
2018-07-23T07:44:22.243Z,55.50
2018-07-23T07:45:27.313Z,55.50
2018-07-23T07:46:32.226Z,55.40
2018-07-23T07:47:37.231Z,55.40
2018-07-23T07:48:42.256Z,55.30
2018-07-23T07:49:47.167Z,55.30
2018-07-23T07:50:52.040Z,55.20
2018-07-23T07:51:57.208Z,55.10
2018-07-23T07:53:02.164Z,55.10
2018-07-23T07:54:07.237Z,55.00
2018-07-23T07:55:12.415Z,55.10
2018-07-23T07:56:17.268Z,55.10
2018-07-23T07:57:22.253Z,55.20
2018-07-23T07:58:27.287Z,55.40
2018-07-23T07:59:32.335Z,55.40
2018-07-23T08:00:37.170Z,55.40
2018-07-23T08:01:42.019Z,55.40
2018-07-23T08:02:46.972Z,55.40
2018-07-23T08:03:52.011Z,55.40
2018-07-23T08:04:56.859Z,55.40
2018-07-23T08:06:01.653Z,55.40
2018-07-23T08:07:06.552Z,55.40
2018-07-23T08:08:11.362Z,55.40
2018-07-23T08:09:16.363Z,55.40
2018-07-23T08:10:21.237Z,55.40
2018-07-23T08:11:26.154Z,55.30
2018-07-23T08:12:30.965Z,55.30
2018-07-23T08:13:35.845Z,55.30
2018-07-23T08:14:40.805Z,55.20
2018-07-23T08:15:45.647Z,55.10
2018-07-23T08:16:50.618Z,55.10
2018-07-23T08:17:55.683Z,55.10
2018-07-23T08:19:00.716Z,55.10
2018-07-23T08:20:05.750Z,55.10
2018-07-23T08:21:10.759Z,55.20
2018-07-23T08:22:15.843Z,55.20
2018-07-23T08:23:20.967Z,55.20
2018-07-23T08:24:25.936Z,55.20
2018-07-23T08:25:30.801Z,55.30
2018-07-23T08:26:35.851Z,55.40
2018-07-23T08:27:41.006Z,55.30
2018-07-23T08:28:45.829Z,55.30
2018-07-23T08:29:50.662Z,55.40
2018-07-23T08:30:55.729Z,55.30
2018-07-23T08:32:00.711Z,55.40
2018-07-23T08:33:05.616Z,55.50
2018-07-23T08:34:10.716Z,55.70
2018-07-23T08:35:15.695Z,55.50
2018-07-23T08:36:20.567Z,55.60
2018-07-23T08:37:25.582Z,55.60
2018-07-23T08:38:30.577Z,55.70
2018-07-23T08:39:36.282Z,55.70
2018-07-23T08:40:41.098Z,55.60
2018-07-23T08:41:46.109Z,55.50
2018-07-23T08:42:51.035Z,55.60
2018-07-23T08:43:56.121Z,55.50
2018-07-23T08:45:01.223Z,55.60
2018-07-23T08:46:06.070Z,55.50
2018-07-23T08:47:10.933Z,55.40
2018-07-23T08:48:15.857Z,55.50
2018-07-23T08:49:20.712Z,55.40
2018-07-23T08:50:25.675Z,55.30
2018-07-23T08:51:30.732Z,55.30
2018-07-23T08:52:35.576Z,55.30
2018-07-23T08:53:40.420Z,55.30
2018-07-23T08:54:45.184Z,55.20
2018-07-23T08:55:50.106Z,55.20
2018-07-23T08:56:55.003Z,55.00
2018-07-23T08:57:59.858Z,54.90
2018-07-23T08:59:04.677Z,54.80
2018-07-23T09:00:09.511Z,54.70
2018-07-23T09:01:14.498Z,54.70
2018-07-23T09:02:19.371Z,54.70
2018-07-23T09:03:24.391Z,54.60
2018-07-23T09:04:29.422Z,54.50
2018-07-23T09:05:34.235Z,54.40
2018-07-23T09:06:39.122Z,54.50
2018-07-23T09:07:44.138Z,54.40
2018-07-23T09:08:48.972Z,54.40
2018-07-23T09:09:53.740Z,54.40
2018-07-23T09:10:58.574Z,54.40
2018-07-23T09:12:03.365Z,54.40
2018-07-23T09:13:08.358Z,54.40
2018-07-23T09:14:13.271Z,54.30
2018-07-23T09:15:18.091Z,54.30
2018-07-23T09:16:22.960Z,54.30
2018-07-23T09:17:27.842Z,54.20
2018-07-23T09:18:32.746Z,54.10
2018-07-23T09:19:37.596Z,54.10
2018-07-23T09:20:42.433Z,54.00
2018-07-23T09:21:47.431Z,54.40
2018-07-23T09:22:52.627Z,54.30
2018-07-23T09:23:57.442Z,54.20
2018-07-23T09:25:02.427Z,54.00
2018-07-23T09:26:07.261Z,53.90
2018-07-23T09:27:12.213Z,53.90
2018-07-23T09:28:17.249Z,53.90
2018-07-23T09:29:22.013Z,53.90
2018-07-23T09:30:26.981Z,54.00
2018-07-23T09:31:31.783Z,54.20
2018-07-23T09:32:36.954Z,54.20
2018-07-23T09:33:42.052Z,54.30
2018-07-23T09:34:46.928Z,54.20
2018-07-23T09:35:51.850Z,54.10
2018-07-23T09:36:56.964Z,54.10
2018-07-23T09:38:02.019Z,54.10
2018-07-23T09:39:07.042Z,54.10
2018-07-23T09:40:12.131Z,54.20
2018-07-23T09:41:17.164Z,54.10
2018-07-23T09:42:22.262Z,54.00
2018-07-23T09:43:27.115Z,54.50
2018-07-23T09:44:32.113Z,53.80
2018-07-23T09:45:37.220Z,53.80
2018-07-23T09:46:42.152Z,53.80
2018-07-23T09:47:47.198Z,53.80
2018-07-23T09:48:52.260Z,53.70
2018-07-23T09:49:57.244Z,53.80
2018-07-23T09:51:02.119Z,53.70
2018-07-23T09:52:07.196Z,53.60
2018-07-23T09:53:12.166Z,53.60
2018-07-23T09:54:17.110Z,53.60
2018-07-23T09:55:22.216Z,53.70
2018-07-23T09:56:27.207Z,53.70
2018-07-23T09:57:32.170Z,53.60
2018-07-23T09:58:37.079Z,53.80
2018-07-23T09:59:42.008Z,53.90
2018-07-23T10:00:46.946Z,53.90
2018-07-23T10:01:51.872Z,53.90
2018-07-23T10:02:57.040Z,53.80
2018-07-23T10:04:01.945Z,53.80
2018-07-23T10:05:07.100Z,53.90
2018-07-23T10:06:12.173Z,53.80
2018-07-23T10:07:17.206Z,53.80
2018-07-23T10:08:22.238Z,53.70
2018-07-23T10:09:27.111Z,53.70
2018-07-23T10:10:32.119Z,53.60
2018-07-23T10:11:37.239Z,53.50
2018-07-23T10:12:42.343Z,53.40
2018-07-23T10:13:47.430Z,53.40
2018-07-23T10:14:52.498Z,53.30
2018-07-23T10:15:57.584Z,53.50
2018-07-23T10:17:02.541Z,53.60
2018-07-23T10:18:07.619Z,53.60
2018-07-23T10:19:12.695Z,53.70
2018-07-23T10:20:17.742Z,53.60
2018-07-23T10:21:22.743Z,53.60
2018-07-23T10:22:27.710Z,53.60
2018-07-23T10:23:32.669Z,53.50
2018-07-23T10:24:37.757Z,53.50
2018-07-23T10:25:42.916Z,53.50
2018-07-23T10:26:47.946Z,53.50
2018-07-23T10:27:53.137Z,53.50
2018-07-23T10:28:58.054Z,53.40
2018-07-23T10:30:03.079Z,53.40
2018-07-23T10:31:08.118Z,53.30
2018-07-23T10:32:13.228Z,53.40
2018-07-23T10:33:18.240Z,53.30
2018-07-23T10:34:23.277Z,53.40
2018-07-23T10:35:28.276Z,53.20
2018-07-23T10:36:33.207Z,53.20
2018-07-23T10:37:38.255Z,53.10
2018-07-23T10:38:43.194Z,53.10
2018-07-23T10:39:48.174Z,53.00
2018-07-23T10:40:53.107Z,53.00
2018-07-23T10:41:58.015Z,53.30
2018-07-23T10:43:03.012Z,53.30
2018-07-23T10:44:07.910Z,53.30
2018-07-23T10:45:12.985Z,53.70
2018-07-23T10:46:17.980Z,53.50
2018-07-23T10:47:22.954Z,53.40
2018-07-23T10:48:27.809Z,53.40
2018-07-23T10:49:32.657Z,53.40
2018-07-23T10:50:37.500Z,53.40
2018-07-23T10:51:42.341Z,53.60
2018-07-23T10:52:47.383Z,53.60
2018-07-23T10:53:52.286Z,53.50
2018-07-23T10:54:57.213Z,53.30
2018-07-23T10:56:02.040Z,53.30
2018-07-23T10:57:06.928Z,53.30
2018-07-23T10:58:11.745Z,53.40
2018-07-23T10:59:16.648Z,53.40
2018-07-23T11:00:21.641Z,53.40
2018-07-23T11:01:26.682Z,53.40
2018-07-23T11:02:31.486Z,53.40
2018-07-23T11:03:36.585Z,53.30
2018-07-23T11:04:41.659Z,53.10
2018-07-23T11:05:46.506Z,53.20
2018-07-23T11:06:51.277Z,53.10
2018-07-23T11:07:56.481Z,53.10
2018-07-23T11:09:01.656Z,53.30
2018-07-23T11:10:07.185Z,54.00
2018-07-23T11:11:12.664Z,53.00
2018-07-23T11:12:17.616Z,53.00
2018-07-23T11:13:22.648Z,53.10
2018-07-23T11:14:33.067Z,53.30
2018-07-23T11:15:38.247Z,53.20
2018-07-23T11:16:43.352Z,53.00
2018-07-23T11:17:48.434Z,52.80
2018-07-23T11:18:56.501Z,52.80
2018-07-23T11:20:01.412Z,53.00
2018-07-23T11:21:06.294Z,53.00
2018-07-23T11:22:11.335Z,53.20
2018-07-23T11:23:17.023Z,53.30
2018-07-23T11:24:22.238Z,53.20
2018-07-23T11:25:39.179Z,53.40
2018-07-23T11:26:32.013Z,53.30
2018-07-23T11:27:37.153Z,53.40
2018-07-23T11:28:42.299Z,53.40
2018-07-23T11:29:47.290Z,53.50
2018-07-23T11:30:52.410Z,53.50
2018-07-23T11:31:57.316Z,53.40
2018-07-23T11:33:02.384Z,53.40
2018-07-23T11:34:07.395Z,53.40
2018-07-23T11:35:12.493Z,53.40
2018-07-23T11:36:17.472Z,53.30
2018-07-23T11:37:22.381Z,53.30
2018-07-23T11:38:27.464Z,53.70
2018-07-23T11:39:32.288Z,53.70
2018-07-23T11:40:37.296Z,53.70
2018-07-23T11:41:42.143Z,53.60
2018-07-23T11:42:47.189Z,53.50
2018-07-23T11:43:52.504Z,53.60
2018-07-23T11:44:57.344Z,53.70
2018-07-23T11:46:02.474Z,53.60
2018-07-23T11:47:07.534Z,53.40
2018-07-23T11:48:12.492Z,53.60
2018-07-23T11:49:17.338Z,53.60
2018-07-23T11:50:22.319Z,53.80
2018-07-23T11:51:27.208Z,53.70
2018-07-23T11:52:32.181Z,53.80
2018-07-23T11:53:37.256Z,53.90
2018-07-23T11:54:42.151Z,54.00
2018-07-23T11:55:47.217Z,54.10
2018-07-23T11:56:52.260Z,54.20
2018-07-23T11:57:57.266Z,54.10
2018-07-23T11:59:02.084Z,54.00
2018-07-23T12:00:07.204Z,54.20
2018-07-23T12:01:12.153Z,54.30
2018-07-23T12:02:17.264Z,54.20
2018-07-23T12:03:22.116Z,54.20
2018-07-23T12:04:27.071Z,54.10
2018-07-23T12:05:31.939Z,54.10
2018-07-23T12:06:37.107Z,54.00
2018-07-23T12:07:42.291Z,54.00
2018-07-23T12:08:47.364Z,53.90
2018-07-23T12:09:52.317Z,53.90
2018-07-23T12:10:57.483Z,54.30
2018-07-23T12:12:02.640Z,53.70
2018-07-23T12:13:07.434Z,53.80
2018-07-23T12:14:12.493Z,54.00
2018-07-23T12:15:17.615Z,53.90
2018-07-23T12:16:22.601Z,54.50
2018-07-23T12:17:27.676Z,53.90
2018-07-23T12:18:32.629Z,53.80
2018-07-23T12:19:37.522Z,53.80
2018-07-23T12:20:42.606Z,53.70
2018-07-23T12:21:47.603Z,53.70
2018-07-23T12:22:52.754Z,53.80
2018-07-23T12:23:57.767Z,53.60
2018-07-23T12:25:02.810Z,53.60
2018-07-23T12:26:07.895Z,53.50
2018-07-23T12:27:12.881Z,53.50
2018-07-23T12:28:18.198Z,53.50
2018-07-23T12:29:23.096Z,53.50
2018-07-23T12:30:28.087Z,53.50
2018-07-23T12:31:33.092Z,53.50
2018-07-23T12:32:38.134Z,53.40
2018-07-23T12:33:43.247Z,53.50
2018-07-23T12:34:48.098Z,53.30
2018-07-23T12:35:53.124Z,53.10
2018-07-23T12:36:57.952Z,53.00
2018-07-23T12:38:02.782Z,53.00
2018-07-23T12:39:07.842Z,53.10
2018-07-23T12:40:12.722Z,53.10
2018-07-23T12:41:17.566Z,53.20
2018-07-23T12:42:22.646Z,53.30
2018-07-23T12:43:27.656Z,53.40
2018-07-23T12:44:32.562Z,53.40
2018-07-23T12:45:37.631Z,53.40
2018-07-23T12:46:42.681Z,53.30
2018-07-23T12:47:47.702Z,53.20
2018-07-23T12:48:52.715Z,53.20
2018-07-23T12:49:57.520Z,53.50
2018-07-23T12:51:02.320Z,53.50
2018-07-23T12:52:07.286Z,53.40
2018-07-23T12:53:12.341Z,53.40
2018-07-23T12:54:17.238Z,53.30
2018-07-23T12:55:22.331Z,53.30
2018-07-23T12:56:27.267Z,53.20
2018-07-23T12:57:32.289Z,53.10
2018-07-23T12:58:37.340Z,53.30
2018-07-23T12:59:42.474Z,53.30
2018-07-23T13:00:47.431Z,53.20
2018-07-23T13:01:52.405Z,52.90
2018-07-23T13:02:57.355Z,53.00
2018-07-23T13:04:02.432Z,52.90
2018-07-23T13:05:07.630Z,52.80
2018-07-23T13:06:12.640Z,52.80
2018-07-23T13:07:17.464Z,52.80
2018-07-23T13:08:22.452Z,52.90
2018-07-23T13:09:27.232Z,53.00
2018-07-23T13:10:32.203Z,52.90
2018-07-23T13:11:37.222Z,52.90
2018-07-23T13:12:42.109Z,53.00
2018-07-23T13:13:47.348Z,52.90
2018-07-23T13:14:52.440Z,52.80
2018-07-23T13:15:57.393Z,52.80
2018-07-23T13:17:02.219Z,52.80
2018-07-23T13:18:07.065Z,52.80
2018-07-23T13:19:12.351Z,52.70
2018-07-23T13:20:17.380Z,52.70
2018-07-23T13:21:22.197Z,52.70
2018-07-23T13:22:27.345Z,52.70
2018-07-23T13:23:32.503Z,52.60
2018-07-23T13:24:37.725Z,52.60
2018-07-23T13:25:42.539Z,52.60
2018-07-23T13:26:47.665Z,52.60
2018-07-23T13:27:52.458Z,52.60
2018-07-23T13:28:57.338Z,52.60
2018-07-23T13:30:02.199Z,52.60
2018-07-23T13:31:07.255Z,52.60
2018-07-23T13:32:12.331Z,52.60
2018-07-23T13:33:17.519Z,52.50
2018-07-23T13:34:22.579Z,52.50
2018-07-23T13:35:27.494Z,52.40
2018-07-23T13:36:32.512Z,52.40
2018-07-23T13:37:37.372Z,52.40
2018-07-23T13:38:42.247Z,52.40
2018-07-23T13:39:47.260Z,52.40
2018-07-23T13:40:52.387Z,52.40
2018-07-23T13:41:57.452Z,52.40
2018-07-23T13:43:02.331Z,52.30
2018-07-23T13:44:07.387Z,52.40
2018-07-23T13:45:12.492Z,52.40
2018-07-23T13:46:17.645Z,52.40
2018-07-23T13:47:22.663Z,52.60
2018-07-23T13:48:27.796Z,52.60
2018-07-23T13:49:32.647Z,52.70
2018-07-23T13:50:37.724Z,52.70
2018-07-23T13:51:42.586Z,52.80
2018-07-23T13:52:47.609Z,52.90
2018-07-23T13:53:52.592Z,53.00
2018-07-23T13:54:57.622Z,53.00
2018-07-23T13:56:02.643Z,53.00
2018-07-23T13:57:07.469Z,53.00